Detall de PIREP

Printer-friendly versionPDF version

[2013/03/03 07:38:00]
Flight IATA:CT1004
Pilot Number:012
Company ICAO:CAT
Aircraft Type:A320/E
PAX:150
Departing Airport: LEBL
Destination Airport: LECO
Alternate Airport:LEMD
Online: VATSIM
Route:GRAUS UM601 BLV UM190 ROXER
Flight Level:F330
No Slew and time accel
No pause
Crash detect
Detect pilot in Cockpit between each 30 and 45 minutes
07:38 Zero fuel Weight: 120987 Lbs, Fuel Weight: 18769 Lbs
07:38 VATSIM:LEBL 030730Z 32013KT 290V350 CAVOK 06/02 Q1018 NOSIG
07:38 VATSIM:LECO 030730Z 17004KT CAVOK 05/04 Q1011
07:39 VOICE CATALONIAN / MWC 2013 BARCELONA CHARTER
07:50 Parking Brakes off
07:55 Take-off
07:55 Take off Weight: 138883 Lbs
07:55 Wind: 314º @ 013 Knots Heading: 250º
07:55 POS N41º 17´ 05´´ E002º 04´ 54´´
07:55 Gear Up: 178 Knots
07:55 Flaps:3 at 178 Knots
07:55 Flaps:2 at 198 Knots
07:55 Flaps:1 at 200 Knots
07:56 Flaps:0 at 221 Knots
08:09 TOC
08:09 Fuel Weight: 14245 Lb
08:10 Wind:271º@020 Knots Heading: 333º Ground Speed: 441 Knots Altitude 33064 ft
08:25 Wind:237º@016 Knots Heading: 293º Ground Speed: 440 Knots Altitude 33074 ft
08:40 Wind:202º@019 Knots Heading: 274º Ground Speed: 444 Knots Altitude 33018 ft
08:51 TOD
08:51 Fuel Weight: 10185 Lb
08:55 Wind:189º@022 Knots Heading: 247º Ground Speed: 371 Knots Altitude 25252 ft
09:10 Wind:186º@008 Knots Heading: 358º Ground Speed: 264 Knots Altitude 5610 ft
09:14 Flaps:1 at 197 Knots
09:14 Flaps:3 at 194 Knots
09:14 Gear Down: 192 Knots
09:14 Flaps:4 at 167 Knots
09:15 Flaps:5 at 162 Knots
09:17 TouchDown:Rate -139 ft/min Speed: 128 Knots
09:17 VATSIM:LECO 030900Z 17004KT CAVOK 07/04 Q1011
09:17 Land
09:17 Wind:186º@003 Knots
09:17 Heading: 209º
09:17 Flight Duration: 01:22
09:17 Landing Weight: 129483 Lbs
09:17 POS N43º 17´ 48´´ W008º 22´ 52´´
09:17 Parking brakes on
09:17 Block to Block Duration: 01:27
09:17 Final Fuel: 8494 Lbls
09:17 Spent Fuel: 10275 Lbls
09:17 Flight Length: 522 NM
09:17 TOD Land Length: 125 NM

Exportar CSV

Powered by Drupal - Modified by Danger4k